Time;durP1;ratioP1;P1;durP2;ratioP2;P2;SDS_P1;SDS_P2;PMS_P1;PMS_P2;Temp;Humidity;BMP_temperature;BMP_pressure;BME280_temperature;BME280_humidity;BME280_pressure;Samples;Min_cycle;Max_cycle;Signal;HPM_P1;HPM_P2
2021/12/06 00:00:39;;;;;;;22.10;15.23;;;;;;;;;;5068894;28;20043;-57
2021/12/06 00:03:07;;;;;;;22.13;14.18;;;;;;;;;;5068008;28;20110;-59
2021/12/06 00:05:34;;;;;;;23.85;14.80;;;;;;;;;;5068383;28;20056;-57
2021/12/06 00:08:00;;;;;;;24.70;15.00;;;;;;;;;;5067693;28;20766;-57
2021/12/06 00:10:26;;;;;;;23.00;14.52;;;;;;;;;;5067665;28;20392;-56
2021/12/06 00:12:52;;;;;;;21.23;14.88;;;;;;;;;;5066710;28;20040;-57
2021/12/06 00:15:18;;;;;;;21.52;14.57;;;;;;;;;;5068502;28;20036;-57
2021/12/06 00:17:44;;;;;;;20.98;13.85;;;;;;;;;;5068785;28;20444;-58
2021/12/06 00:20:12;;;;;;;20.70;13.98;;;;;;;;;;5066708;28;20557;-58
2021/12/06 00:22:38;;;;;;;18.70;12.75;;;;;;;;;;5067524;28;20109;-58
2021/12/06 00:25:04;;;;;;;19.17;13.45;;;;;;;;;;5068316;28;20440;-58
2021/12/06 00:27:31;;;;;;;18.30;12.32;;;;;;;;;;5069562;28;20046;-58
2021/12/06 00:29:57;;;;;;;19.13;13.43;;;;;;;;;;5069984;28;20442;-58
2021/12/06 00:32:23;;;;;;;19.30;13.13;;;;;;;;;;5067804;28;20064;-57
2021/12/06 00:34:49;;;;;;;18.25;12.70;;;;;;;;;;5068319;28;20114;-58
2021/12/06 00:37:22;;;;;;;19.35;13.07;;;;;;;;;;5068909;28;20032;-58
2021/12/06 00:39:49;;;;;;;18.88;13.13;;;;;;;;;;5067036;28;20044;-58
2021/12/06 00:42:16;;;;;;;17.67;12.55;;;;;;;;;;5065795;28;20119;-58
2021/12/06 00:44:42;;;;;;;20.17;13.25;;;;;;;;;;5066300;28;20047;-57
2021/12/06 00:47:08;;;;;;;20.48;13.25;;;;;;;;;;5064443;28;20487;-58
2021/12/06 00:49:34;;;;;;;21.45;14.05;;;;;;;;;;5067631;28;20055;-58
2021/12/06 00:52:00;;;;;;;22.02;13.93;;;;;;;;;;5065393;28;20049;-57
2021/12/06 00:54:26;;;;;;;21.10;13.98;;;;;;;;;;5066289;28;20083;-58
2021/12/06 00:56:52;;;;;;;20.45;13.43;;;;;;;;;;5065894;28;20544;-57
2021/12/06 00:59:18;;;;;;;20.98;14.38;;;;;;;;;;5064547;28;20043;-57
2021/12/06 01:01:45;;;;;;;21.10;13.60;;;;;;;;;;5067497;28;20411;-58
2021/12/06 01:04:11;;;;;;;19.92;13.75;;;;;;;;;;5066332;28;20044;-58
2021/12/06 01:06:37;;;;;;;20.95;14.13;;;;;;;;;;5066157;28;20122;-59
2021/12/06 01:09:03;;;;;;;20.25;14.02;;;;;;;;;;5064958;28;20094;-57
2021/12/06 01:11:30;;;;;;;23.08;14.23;;;;;;;;;;5068722;28;20576;-58
2021/12/06 01:13:56;;;;;;;21.48;14.43;;;;;;;;;;5066122;28;20089;-58
2021/12/06 01:16:22;;;;;;;22.92;14.65;;;;;;;;;;5069266;28;20391;-57
2021/12/06 01:18:48;;;;;;;23.70;15.10;;;;;;;;;;5066286;28;20048;-57
2021/12/06 01:21:24;;;;;;;22.88;13.98;;;;;;;;;;5068756;28;20403;-58
2021/12/06 01:23:58;;;;;;;23.25;14.82;;;;;;;;;;5065500;28;20036;-58
2021/12/06 01:39:51;;;;;;;29.63;17.35;;;;;;;;;;5024805;28;20050;-57
2021/12/06 01:42:17;;;;;;;28.30;17.38;;;;;;;;;;5029408;28;20564;-58
2021/12/06 01:44:44;;;;;;;30.05;17.90;;;;;;;;;;5023468;28;20124;-58
2021/12/06 01:47:12;;;;;;;29.35;17.70;;;;;;;;;;4997448;28;20037;-59
2021/12/06 01:49:40;;;;;;;30.67;16.25;;;;;;;;;;5027864;28;20488;-57
2021/12/06 01:52:08;;;;;;;28.63;15.63;;;;;;;;;;5026795;28;20042;-58
2021/12/06 01:54:34;;;;;;;28.88;17.13;;;;;;;;;;5009484;28;20509;-58
2021/12/06 01:57:00;;;;;;;26.60;15.93;;;;;;;;;;5017157;28;20071;-59
2021/12/06 01:59:26;;;;;;;26.30;16.05;;;;;;;;;;5024643;28;21495;-57
2021/12/06 02:01:53;;;;;;;27.77;15.85;;;;;;;;;;5040278;28;20087;-58
2021/12/06 02:04:20;;;;;;;30.23;17.10;;;;;;;;;;5028153;28;20400;-58
2021/12/06 02:06:46;;;;;;;28.80;16.67;;;;;;;;;;5013159;28;20033;-57
2021/12/06 02:09:13;;;;;;;28.95;16.42;;;;;;;;;;5066291;28;20134;-57
2021/12/06 02:11:40;;;;;;;28.15;16.73;;;;;;;;;;5072230;28;20076;-58
2021/12/06 02:14:25;;;;;;;29.17;17.55;;;;;;;;;;5071280;28;20563;-58
2021/12/06 02:17:19;;;;;;;29.02;16.65;;;;;;;;;;5068304;28;20430;-57
2021/12/06 02:19:43;;;;;;;29.67;17.90;;;;;;;;;;5069762;28;20442;-58
2021/12/06 02:22:11;;;;;;;28.88;17.13;;;;;;;;;;5072042;28;20045;-57
2021/12/06 02:24:38;;;;;;;28.30;16.77;;;;;;;;;;5067284;28;20083;-57
2021/12/06 02:27:05;;;;;;;28.55;16.77;;;;;;;;;;5070930;28;20164;-58
2021/12/06 02:29:31;;;;;;;29.20;17.30;;;;;;;;;;5069397;28;20137;-59
2021/12/06 02:31:57;;;;;;;28.60;16.77;;;;;;;;;;5070936;28;20041;-58
2021/12/06 02:34:23;;;;;;;29.33;17.33;;;;;;;;;;5068819;28;20095;-58
2021/12/06 02:36:49;;;;;;;29.52;17.42;;;;;;;;;;5067819;28;20045;-58
2021/12/06 02:39:24;;;;;;;30.38;17.73;;;;;;;;;;5069052;28;20040;-58
2021/12/06 02:41:52;;;;;;;27.60;16.63;;;;;;;;;;5066402;28;20044;-58
2021/12/06 02:44:18;;;;;;;30.77;18.08;;;;;;;;;;5066174;28;20048;-56
2021/12/06 02:46:44;;;;;;;29.92;16.25;;;;;;;;;;5069839;28;20391;-59
2021/12/06 02:49:11;;;;;;;27.48;16.60;;;;;;;;;;5061270;28;20036;-58
2021/12/06 02:51:37;;;;;;;28.70;16.17;;;;;;;;;;5064869;28;20048;-59
2021/12/06 02:54:04;;;;;;;30.33;17.25;;;;;;;;;;5062232;28;20089;-57
2021/12/06 02:59:20;;;;;;;27.80;16.35;;;;;;;;;;5028563;28;20052;-56
2021/12/06 03:01:48;;;;;;;31.50;17.65;;;;;;;;;;5028231;28;20053;-58
2021/12/06 03:04:15;;;;;;;28.15;16.45;;;;;;;;;;5012634;28;20053;-58
2021/12/06 03:06:41;;;;;;;29.58;17.17;;;;;;;;;;5026199;28;20088;-58
2021/12/06 03:09:12;;;;;;;28.20;17.10;;;;;;;;;;5029276;28;20057;-58
2021/12/06 03:11:43;;;;;;;29.38;17.00;;;;;;;;;;5027243;28;20069;-58
2021/12/06 03:14:11;;;;;;;26.83;16.20;;;;;;;;;;5029488;28;20508;-57
2021/12/06 03:16:39;;;;;;;30.55;16.80;;;;;;;;;;5028235;28;20135;-58
2021/12/06 03:19:06;;;;;;;29.27;17.05;;;;;;;;;;5029614;28;20065;-58
2021/12/06 03:21:32;;;;;;;30.85;17.00;;;;;;;;;;5027405;28;20048;-58
2021/12/06 03:23:58;;;;;;;28.55;17.38;;;;;;;;;;5028144;28;20128;-57
2021/12/06 03:26:25;;;;;;;28.75;16.02;;;;;;;;;;5028625;28;20042;-58
2021/12/06 03:28:52;;;;;;;27.58;16.52;;;;;;;;;;5028095;28;20120;-57
2021/12/06 03:31:18;;;;;;;26.67;15.77;;;;;;;;;;5028500;28;20447;-59
2021/12/06 03:33:52;;;;;;;27.60;15.80;;;;;;;;;;5026177;28;20068;-58
2021/12/06 03:36:20;;;;;;;25.15;15.32;;;;;;;;;;5046989;28;20062;-56
2021/12/06 03:38:46;;;;;;;28.35;16.10;;;;;;;;;;5069936;28;20044;-58
2021/12/06 03:41:14;;;;;;;26.55;15.43;;;;;;;;;;5066839;28;20071;-57
2021/12/06 03:43:40;;;;;;;25.13;14.85;;;;;;;;;;5066406;28;20039;-58
2021/12/06 03:46:07;;;;;;;28.42;16.02;;;;;;;;;;5070197;28;20040;-57
2021/12/06 03:48:33;;;;;;;27.35;15.57;;;;;;;;;;5068494;28;20120;-58
2021/12/06 03:51:00;;;;;;;27.20;15.40;;;;;;;;;;5069834;28;20107;-57
2021/12/06 03:53:26;;;;;;;25.52;15.35;;;;;;;;;;5066232;28;20494;-58
2021/12/06 03:55:52;;;;;;;26.92;15.23;;;;;;;;;;5068828;28;20098;-57
2021/12/06 03:58:19;;;;;;;27.90;15.75;;;;;;;;;;5071063;28;20039;-58
2021/12/06 04:00:45;;;;;;;27.92;16.73;;;;;;;;;;5066922;28;20426;-57
2021/12/06 04:03:12;;;;;;;27.70;16.35;;;;;;;;;;5069924;28;20036;-58
2021/12/06 04:05:38;;;;;;;26.23;15.55;;;;;;;;;;5066459;28;20098;-58
2021/12/06 04:08:04;;;;;;;26.80;15.18;;;;;;;;;;5070385;28;20062;-58
2021/12/06 04:10:30;;;;;;;28.45;16.17;;;;;;;;;;5066731;28;20099;-59
2021/12/06 04:12:58;;;;;;;28.25;15.55;;;;;;;;;;5065861;28;20502;-58
2021/12/06 04:15:25;;;;;;;32.35;16.67;;;;;;;;;;5066533;28;20036;-58
2021/12/06 04:17:51;;;;;;;31.35;16.58;;;;;;;;;;5070419;28;20036;-57
2021/12/06 04:20:18;;;;;;;27.55;15.57;;;;;;;;;;5066943;28;20033;-57
2021/12/06 04:22:44;;;;;;;26.92;15.68;;;;;;;;;;5068619;28;20051;-58
2021/12/06 04:25:12;;;;;;;33.30;16.90;;;;;;;;;;5068689;28;20037;-58
2021/12/06 04:27:39;;;;;;;28.80;16.02;;;;;;;;;;5069862;28;20495;-58
2021/12/06 04:30:08;;;;;;;30.77;16.83;;;;;;;;;;5069206;28;20381;-57
2021/12/06 04:32:34;;;;;;;32.47;17.35;;;;;;;;;;5061777;28;20055;-57
2021/12/06 04:35:00;;;;;;;32.28;16.70;;;;;;;;;;5069745;28;20040;-58
2021/12/06 04:37:26;;;;;;;30.98;17.00;;;;;;;;;;5061997;28;20043;-58
2021/12/06 04:39:52;;;;;;;32.33;16.88;;;;;;;;;;5069606;28;20043;-57
2021/12/06 04:42:20;;;;;;;34.40;17.45;;;;;;;;;;5068066;28;20391;-58
2021/12/06 04:44:46;;;;;;;33.30;18.40;;;;;;;;;;5068929;28;20048;-58
2021/12/06 04:47:12;;;;;;;30.38;16.80;;;;;;;;;;5068120;28;20101;-58
2021/12/06 04:49:38;;;;;;;39.05;18.55;;;;;;;;;;5069760;28;20404;-58
2021/12/06 04:52:08;;;;;;;36.20;18.67;;;;;;;;;;5066433;28;20041;-58
2021/12/06 04:54:37;;;;;;;37.90;17.70;;;;;;;;;;5070153;28;20064;-58
2021/12/06 04:57:27;;;;;;;37.45;18.50;;;;;;;;;;5063778;28;20040;-58
2021/12/06 04:59:55;;;;;;;38.03;18.08;;;;;;;;;;5009559;28;20049;-58
2021/12/06 05:02:26;;;;;;;35.25;17.55;;;;;;;;;;5022395;28;20439;-58
2021/12/06 05:04:54;;;;;;;36.50;17.75;;;;;;;;;;5022054;28;20057;-58
2021/12/06 05:07:23;;;;;;;35.97;18.80;;;;;;;;;;5024247;28;20103;-59
2021/12/06 05:09:49;;;;;;;36.60;17.67;;;;;;;;;;5023555;28;20584;-58
2021/12/06 05:12:16;;;;;;;40.08;17.92;;;;;;;;;;5026282;28;20540;-58
2021/12/06 05:14:42;;;;;;;35.13;17.42;;;;;;;;;;5018747;28;20038;-57
2021/12/06 05:17:08;;;;;;;42.88;18.88;;;;;;;;;;5029830;28;20049;-57
2021/12/06 05:19:35;;;;;;;41.17;18.95;;;;;;;;;;5012079;28;20044;-58
2021/12/06 05:22:01;;;;;;;40.72;19.60;;;;;;;;;;5013792;28;20080;-58
2021/12/06 05:24:27;;;;;;;35.90;16.63;;;;;;;;;;5031033;28;20080;-58
2021/12/06 05:26:53;;;;;;;38.60;18.38;;;;;;;;;;5030166;28;20041;-58
2021/12/06 05:29:24;;;;;;;41.63;19.13;;;;;;;;;;5030993;28;20046;-58
2021/12/06 05:31:56;;;;;;;42.60;18.33;;;;;;;;;;5009540;28;20060;-58
2021/12/06 05:34:30;;;;;;;43.00;19.30;;;;;;;;;;5030365;28;20048;-58
2021/12/06 05:36:57;;;;;;;39.65;18.30;;;;;;;;;;5041043;28;20084;-59
2021/12/06 05:39:23;;;;;;;43.08;19.55;;;;;;;;;;5070847;28;20033;-58
2021/12/06 05:41:49;;;;;;;50.15;20.00;;;;;;;;;;5073528;28;20110;-57
2021/12/06 05:44:15;;;;;;;42.60;19.13;;;;;;;;;;5065509;28;20102;-57
2021/12/06 05:46:41;;;;;;;44.90;18.17;;;;;;;;;;5067094;28;20037;-58
2021/12/06 05:49:07;;;;;;;46.08;19.65;;;;;;;;;;5070035;28;20115;-57
2021/12/06 05:51:33;;;;;;;44.72;19.58;;;;;;;;;;5072703;28;20069;-58
2021/12/06 05:53:59;;;;;;;46.22;18.95;;;;;;;;;;5072669;28;20040;-58
2021/12/06 05:56:25;;;;;;;42.95;19.25;;;;;;;;;;5069322;28;20048;-58
2021/12/06 05:58:51;;;;;;;49.28;20.40;;;;;;;;;;5070309;28;20123;-58
2021/12/06 06:01:17;;;;;;;48.50;19.70;;;;;;;;;;5069653;28;20028;-58
2021/12/06 06:03:43;;;;;;;48.10;20.88;;;;;;;;;;5069846;28;20041;-58
2021/12/06 06:06:09;;;;;;;45.80;20.08;;;;;;;;;;5067685;28;20571;-59
2021/12/06 06:08:35;;;;;;;41.92;19.80;;;;;;;;;;5069791;28;20048;-57
2021/12/06 06:11:02;;;;;;;48.13;20.33;;;;;;;;;;5072717;28;20045;-58
2021/12/06 06:13:28;;;;;;;46.15;20.70;;;;;;;;;;5070683;28;20048;-58
2021/12/06 06:15:55;;;;;;;45.45;19.98;;;;;;;;;;5072814;28;20036;-58
2021/12/06 06:18:21;;;;;;;50.03;20.15;;;;;;;;;;5069721;28;20033;-58
2021/12/06 06:20:54;;;;;;;51.25;21.77;;;;;;;;;;5067131;28;20502;-57
2021/12/06 06:23:21;;;;;;;49.05;21.27;;;;;;;;;;5073163;28;20392;-57
2021/12/06 06:25:48;;;;;;;48.30;21.80;;;;;;;;;;5070923;28;20048;-58
2021/12/06 06:28:14;;;;;;;52.45;22.00;;;;;;;;;;5072294;28;20083;-57
2021/12/06 06:30:41;;;;;;;57.65;21.48;;;;;;;;;;5072002;28;20056;-58
2021/12/06 06:33:07;;;;;;;56.70;22.60;;;;;;;;;;5072875;28;20048;-57
2021/12/06 06:35:33;;;;;;;48.00;19.35;;;;;;;;;;5069643;28;20052;-58
2021/12/06 06:38:00;;;;;;;47.38;21.35;;;;;;;;;;5071814;28;20047;-57
2021/12/06 06:40:26;;;;;;;50.13;21.10;;;;;;;;;;5071849;28;20094;-58
2021/12/06 06:42:52;;;;;;;51.08;21.30;;;;;;;;;;5072655;28;20043;-57
2021/12/06 06:45:20;;;;;;;51.58;21.27;;;;;;;;;;5071206;28;20037;-57
2021/12/06 06:47:47;;;;;;;55.60;22.88;;;;;;;;;;5072538;28;20040;-58
2021/12/06 06:50:13;;;;;;;52.22;22.60;;;;;;;;;;5070614;28;20036;-57
2021/12/06 06:52:39;;;;;;;50.50;22.40;;;;;;;;;;5067387;28;20095;-57
2021/12/06 06:55:07;;;;;;;55.35;23.05;;;;;;;;;;5071177;28;20036;-58
2021/12/06 06:57:33;;;;;;;64.00;25.60;;;;;;;;;;5072331;28;20384;-58
2021/12/06 06:59:59;;;;;;;56.80;23.58;;;;;;;;;;5071954;28;20067;-58
2021/12/06 07:02:25;;;;;;;62.92;25.05;;;;;;;;;;5071835;28;20072;-58
2021/12/06 07:04:51;;;;;;;52.85;22.90;;;;;;;;;;5070269;28;20040;-56
2021/12/06 07:07:18;;;;;;;54.88;22.60;;;;;;;;;;5071999;28;20047;-58
2021/12/06 07:09:44;;;;;;;46.58;20.45;;;;;;;;;;5071226;28;20083;-58
2021/12/06 07:12:17;;;;;;;50.47;20.80;;;;;;;;;;5071696;28;20443;-57
2021/12/06 07:14:44;;;;;;;51.72;21.67;;;;;;;;;;5071672;28;20044;-57
2021/12/06 07:17:10;;;;;;;45.50;20.02;;;;;;;;;;5071564;28;20043;-57
2021/12/06 07:19:36;;;;;;;44.47;19.17;;;;;;;;;;5071758;28;20043;-57
2021/12/06 07:22:03;;;;;;;46.13;20.20;;;;;;;;;;5070959;28;20115;-56
2021/12/06 07:24:29;;;;;;;53.08;21.13;;;;;;;;;;5071823;28;20125;-57
2021/12/06 07:26:56;;;;;;;42.97;19.83;;;;;;;;;;5071279;28;20396;-58
2021/12/06 07:29:22;;;;;;;41.70;19.50;;;;;;;;;;5071083;28;20044;-57
2021/12/06 07:31:48;;;;;;;40.30;18.25;;;;;;;;;;5071417;28;20044;-58
2021/12/06 07:34:14;;;;;;;46.22;20.27;;;;;;;;;;5069315;28;20028;-58
2021/12/06 07:36:40;;;;;;;41.75;19.58;;;;;;;;;;5066474;28;20044;-58
2021/12/06 07:39:06;;;;;;;41.30;20.15;;;;;;;;;;5067889;28;20044;-58
2021/12/06 07:41:33;;;;;;;48.30;18.85;;;;;;;;;;5071695;28;20340;-57
2021/12/06 07:43:59;;;;;;;44.92;20.25;;;;;;;;;;5071582;28;20380;-58
2021/12/06 07:46:26;;;;;;;46.88;21.38;;;;;;;;;;5071775;28;20048;-57
2021/12/06 07:48:52;;;;;;;45.15;19.08;;;;;;;;;;5070631;28;20486;-57
2021/12/06 07:51:26;;;;;;;41.95;18.45;;;;;;;;;;5053496;28;20089;-57
2021/12/06 07:53:52;;;;;;;42.97;20.02;;;;;;;;;;5071740;28;20033;-57
2021/12/06 07:56:19;;;;;;;42.03;18.70;;;;;;;;;;5071512;28;20124;-58
2021/12/06 07:58:45;;;;;;;46.88;19.63;;;;;;;;;;5070226;28;20047;-57
2021/12/06 08:01:11;;;;;;;47.95;19.92;;;;;;;;;;5071131;28;20055;-58
2021/12/06 08:03:38;;;;;;;42.22;19.50;;;;;;;;;;5071421;28;20041;-57
2021/12/06 08:06:05;;;;;;;42.97;20.08;;;;;;;;;;5071028;28;20048;-57
2021/12/06 08:08:32;;;;;;;38.45;18.92;;;;;;;;;;5060270;28;20519;-58
2021/12/06 08:11:00;;;;;;;44.17;19.58;;;;;;;;;;5070979;28;20155;-57
2021/12/06 08:13:27;;;;;;;43.03;20.98;;;;;;;;;;5069538;28;20063;-57
2021/12/06 08:15:54;;;;;;;39.13;18.02;;;;;;;;;;5071307;28;20127;-57
2021/12/06 08:18:20;;;;;;;43.45;18.25;;;;;;;;;;5071019;28;20052;-57
2021/12/06 08:20:47;;;;;;;46.13;20.00;;;;;;;;;;5071459;28;20062;-58
2021/12/06 08:23:13;;;;;;;43.80;20.25;;;;;;;;;;5070851;28;20132;-58
2021/12/06 08:25:40;;;;;;;39.50;17.67;;;;;;;;;;5071265;28;20127;-57
2021/12/06 08:28:06;;;;;;;40.45;16.33;;;;;;;;;;5071543;28;20035;-58
2021/12/06 08:30:32;;;;;;;46.42;21.23;;;;;;;;;;5070966;28;20090;-58
2021/12/06 08:33:00;;;;;;;43.58;19.50;;;;;;;;;;5070866;28;20037;-57
2021/12/06 08:35:27;;;;;;;48.92;23.40;;;;;;;;;;5070915;28;20079;-57
2021/12/06 08:37:54;;;;;;;48.92;22.98;;;;;;;;;;5071054;28;20032;-58
2021/12/06 08:40:21;;;;;;;51.95;22.42;;;;;;;;;;5071090;28;20111;-58
2021/12/06 08:42:48;;;;;;;51.60;23.15;;;;;;;;;;5070947;28;20119;-57
2021/12/06 08:45:14;;;;;;;53.38;23.33;;;;;;;;;;5070587;28;20033;-57
2021/12/06 08:47:41;;;;;;;52.88;24.15;;;;;;;;;;5070723;28;20079;-57
2021/12/06 08:50:09;;;;;;;63.22;26.33;;;;;;;;;;5069879;28;20089;-57
2021/12/06 08:52:36;;;;;;;59.20;27.08;;;;;;;;;;5070600;28;20075;-58
2021/12/06 08:55:03;;;;;;;60.40;26.88;;;;;;;;;;5070873;28;20044;-58
2021/12/06 08:57:29;;;;;;;52.22;22.98;;;;;;;;;;5070572;28;20596;-57
2021/12/06 08:59:55;;;;;;;54.33;24.80;;;;;;;;;;5070733;28;20036;-57
2021/12/06 09:02:21;;;;;;;47.97;22.95;;;;;;;;;;5070404;28;20076;-57
2021/12/06 09:04:47;;;;;;;50.90;23.17;;;;;;;;;;5070630;28;20049;-58
2021/12/06 09:07:14;;;;;;;53.88;23.13;;;;;;;;;;5070802;28;20570;-57
2021/12/06 09:09:46;;;;;;;50.97;23.95;;;;;;;;;;5070497;28;20049;-57
2021/12/06 09:12:19;;;;;;;53.70;23.43;;;;;;;;;;5070519;28;20044;-58
2021/12/06 09:14:46;;;;;;;41.95;20.88;;;;;;;;;;5070495;28;20415;-58
2021/12/06 09:17:13;;;;;;;42.67;19.65;;;;;;;;;;5069609;28;20051;-57
2021/12/06 09:19:39;;;;;;;42.30;18.58;;;;;;;;;;5070339;28;20037;-58
2021/12/06 09:22:05;;;;;;;38.65;17.67;;;;;;;;;;5069221;28;20037;-58
2021/12/06 09:24:32;;;;;;;37.60;17.10;;;;;;;;;;5069173;28;20375;-58
2021/12/06 09:27:00;;;;;;;34.63;16.65;;;;;;;;;;5070546;28;20051;-57
2021/12/06 09:29:26;;;;;;;39.67;17.52;;;;;;;;;;5070217;28;20044;-58
2021/12/06 09:31:54;;;;;;;38.50;17.05;;;;;;;;;;5070513;28;20052;-57
2021/12/06 09:34:20;;;;;;;37.22;18.75;;;;;;;;;;5069253;28;20044;-57
2021/12/06 09:36:46;;;;;;;36.08;17.27;;;;;;;;;;5069907;28;20032;-57
2021/12/06 09:39:13;;;;;;;34.88;17.67;;;;;;;;;;5069200;28;20483;-58
2021/12/06 09:41:39;;;;;;;30.85;16.30;;;;;;;;;;5070064;28;20053;-57
2021/12/06 09:44:06;;;;;;;34.80;16.90;;;;;;;;;;5069253;28;20132;-58
2021/12/06 09:46:37;;;;;;;32.85;16.25;;;;;;;;;;5069917;28;20036;-57
2021/12/06 09:49:05;;;;;;;30.25;15.32;;;;;;;;;;5070391;28;20070;-58
2021/12/06 09:51:31;;;;;;;26.48;12.95;;;;;;;;;;5069990;28;20045;-57
2021/12/06 09:53:58;;;;;;;32.47;14.95;;;;;;;;;;5070280;28;20040;-58
2021/12/06 09:56:36;;;;;;;31.25;15.43;;;;;;;;;;5062495;28;20641;-58
2021/12/06 09:59:05;;;;;;;27.52;14.10;;;;;;;;;;5069833;28;20029;-58
2021/12/06 10:01:33;;;;;;;29.02;14.68;;;;;;;;;;5070305;28;20044;-57
2021/12/06 10:04:00;;;;;;;29.02;15.15;;;;;;;;;;5073896;28;20057;-57
2021/12/06 10:06:27;;;;;;;31.48;14.88;;;;;;;;;;5073960;28;20434;-58
2021/12/06 10:08:54;;;;;;;28.95;14.18;;;;;;;;;;5073480;28;20052;-58
2021/12/06 10:11:23;;;;;;;28.65;14.38;;;;;;;;;;5073798;28;20053;-58
2021/12/06 10:13:49;;;;;;;31.13;14.73;;;;;;;;;;5073390;28;20051;-58
2021/12/06 10:16:15;;;;;;;29.95;15.05;;;;;;;;;;5073552;28;20067;-58
2021/12/06 10:18:42;;;;;;;29.88;14.85;;;;;;;;;;5073314;28;20063;-58
2021/12/06 10:21:08;;;;;;;31.80;15.40;;;;;;;;;;5073487;28;20098;-58
2021/12/06 10:23:37;;;;;;;32.53;15.52;;;;;;;;;;5072119;28;20520;-57
2021/12/06 10:26:03;;;;;;;30.98;15.90;;;;;;;;;;5073495;28;20442;-58
2021/12/06 10:28:30;;;;;;;31.77;15.38;;;;;;;;;;5073598;28;20078;-57
2021/12/06 10:31:02;;;;;;;29.83;14.75;;;;;;;;;;5073444;28;20584;-58
2021/12/06 10:33:30;;;;;;;31.08;15.15;;;;;;;;;;5073751;28;20051;-57
2021/12/06 10:35:58;;;;;;;35.40;16.92;;;;;;;;;;5071915;28;20140;-56
2021/12/06 10:38:28;;;;;;;35.47;16.63;;;;;;;;;;5073242;28;20032;-57
2021/12/06 10:41:00;;;;;;;37.50;16.85;;;;;;;;;;5071583;28;20089;-58
2021/12/06 10:43:26;;;;;;;36.90;15.82;;;;;;;;;;5071848;28;20040;-57
2021/12/06 10:45:54;;;;;;;40.15;17.60;;;;;;;;;;5072836;28;20085;-57
2021/12/06 10:48:22;;;;;;;39.25;16.35;;;;;;;;;;5072943;28;20492;-58
2021/12/06 10:50:48;;;;;;;40.05;16.45;;;;;;;;;;5071671;28;20049;-58
2021/12/06 10:53:15;;;;;;;36.00;17.05;;;;;;;;;;5072955;28;20063;-58
2021/12/06 10:55:42;;;;;;;34.50;15.48;;;;;;;;;;5072905;28;20040;-58
2021/12/06 10:58:11;;;;;;;39.45;16.98;;;;;;;;;;5072769;28;20360;-57
2021/12/06 11:00:40;;;;;;;35.60;16.25;;;;;;;;;;5072744;28;20047;-58
2021/12/06 11:03:20;;;;;;;43.25;17.45;;;;;;;;;;5072316;28;20086;-57
2021/12/06 11:05:49;;;;;;;36.22;16.77;;;;;;;;;;5072783;28;20548;-58
2021/12/06 11:08:16;;;;;;;41.45;17.77;;;;;;;;;;5072373;28;20052;-58
2021/12/06 11:11:01;;;;;;;35.95;17.55;;;;;;;;;;5071572;28;20131;-58
2021/12/06 11:13:33;;;;;;;37.42;16.58;;;;;;;;;;5070160;28;20051;-58
2021/12/06 11:15:59;;;;;;;38.00;16.77;;;;;;;;;;5072625;28;20509;-57
2021/12/06 11:18:29;;;;;;;32.72;15.15;;;;;;;;;;5072418;28;20124;-57
2021/12/06 11:20:55;;;;;;;32.55;13.93;;;;;;;;;;5072183;28;20040;-57
2021/12/06 11:23:21;;;;;;;27.35;13.63;;;;;;;;;;5072293;28;20033;-57
2021/12/06 11:25:58;;;;;;;28.42;13.43;;;;;;;;;;5070866;28;20083;-57
2021/12/06 11:28:29;;;;;;;30.25;13.25;;;;;;;;;;5072501;28;20048;-58
2021/12/06 11:31:05;;;;;;;27.08;13.18;;;;;;;;;;5071997;28;20505;-57
2021/12/06 11:33:35;;;;;;;28.27;13.07;;;;;;;;;;5072207;28;20048;-58
2021/12/06 11:36:02;;;;;;;29.30;14.63;;;;;;;;;;5072020;28;20416;-57
2021/12/06 11:38:32;;;;;;;32.38;14.13;;;;;;;;;;5071947;28;20386;-58
2021/12/06 11:40:59;;;;;;;28.83;14.10;;;;;;;;;;5070410;28;20044;-57
2021/12/06 11:43:25;;;;;;;36.10;16.02;;;;;;;;;;5068828;28;20066;-57
2021/12/06 11:45:57;;;;;;;36.15;16.52;;;;;;;;;;5067821;28;20052;-57
2021/12/06 11:48:24;;;;;;;44.00;18.87;;;;;;;;;;5071383;28;20078;-58
2021/12/06 11:50:52;;;;;;;43.30;18.67;;;;;;;;;;5071683;28;20291;-57
2021/12/06 11:53:19;;;;;;;42.03;19.50;;;;;;;;;;5069881;28;20044;-57
2021/12/06 11:55:55;;;;;;;42.67;20.05;;;;;;;;;;5070298;28;20041;-58
2021/12/06 11:58:26;;;;;;;43.90;19.45;;;;;;;;;;5063454;28;20036;-57
2021/12/06 12:01:15;;;;;;;44.35;20.27;;;;;;;;;;5071551;28;20072;-58
2021/12/06 12:03:42;;;;;;;49.95;20.95;;;;;;;;;;5070156;28;20049;-57
2021/12/06 12:06:26;;;;;;;40.45;19.23;;;;;;;;;;5071136;28;20040;-57
2021/12/06 12:09:04;;;;;;;47.38;21.70;;;;;;;;;;5071202;28;20106;-57
2021/12/06 12:11:31;;;;;;;56.85;22.52;;;;;;;;;;5071248;28;20048;-58
2021/12/06 12:13:58;;;;;;;53.33;23.40;;;;;;;;;;5071249;28;20041;-58
2021/12/06 12:16:24;;;;;;;48.08;21.92;;;;;;;;;;5071092;28;20391;-58
2021/12/06 12:18:51;;;;;;;51.28;22.80;;;;;;;;;;5071332;28;20084;-58
2021/12/06 12:21:17;;;;;;;51.00;22.65;;;;;;;;;;5069685;28;20127;-57
2021/12/06 12:23:43;;;;;;;53.80;22.67;;;;;;;;;;5071116;28;20036;-58
2021/12/06 12:26:14;;;;;;;47.33;20.85;;;;;;;;;;5069339;28;20072;-57
2021/12/06 12:31:15;;;;;;;50.90;21.25;;;;;;;;;;5070664;28;20056;-57
2021/12/06 12:33:41;;;;;;;48.55;21.98;;;;;;;;;;5071115;28;20048;-57
2021/12/06 12:36:11;;;;;;;48.92;20.38;;;;;;;;;;5070930;28;20039;-57
2021/12/06 12:38:38;;;;;;;47.70;18.92;;;;;;;;;;5071199;28;20537;-57
2021/12/06 12:41:07;;;;;;;44.20;20.30;;;;;;;;;;5069717;28;20040;-57
2021/12/06 12:43:34;;;;;;;46.75;19.85;;;;;;;;;;5070823;28;20070;-57
2021/12/06 12:46:04;;;;;;;48.78;22.05;;;;;;;;;;5070870;28;20040;-57
2021/12/06 12:48:43;;;;;;;43.22;19.05;;;;;;;;;;5070700;28;20036;-57
2021/12/06 12:51:11;;;;;;;42.40;19.67;;;;;;;;;;5070774;28;20074;-57
2021/12/06 12:53:44;;;;;;;49.78;22.55;;;;;;;;;;5062735;28;20886;-57
2021/12/06 12:56:21;;;;;;;46.17;21.48;;;;;;;;;;5070766;28;20580;-57
2021/12/06 12:58:48;;;;;;;49.45;21.30;;;;;;;;;;5070824;28;20032;-57
2021/12/06 13:01:14;;;;;;;47.60;21.48;;;;;;;;;;5070459;28;20036;-58
2021/12/06 13:03:41;;;;;;;49.35;21.42;;;;;;;;;;5070699;28;20089;-58
2021/12/06 13:06:19;;;;;;;57.17;21.90;;;;;;;;;;5070821;28;20051;-58
2021/12/06 13:08:45;;;;;;;52.58;23.80;;;;;;;;;;5070627;28;20457;-58
2021/12/06 13:11:11;;;;;;;49.03;20.08;;;;;;;;;;5070781;28;20036;-57
2021/12/06 13:13:44;;;;;;;49.20;19.85;;;;;;;;;;5070396;28;20033;-58
2021/12/06 13:16:36;;;;;;;45.78;20.38;;;;;;;;;;5070915;28;20150;-57
2021/12/06 13:21:53;;;;;;;50.20;24.00;;;;;;;;;;5070424;28;20048;-58
2021/12/06 13:24:19;;;;;;;53.72;21.85;;;;;;;;;;5069253;28;20044;-57
2021/12/06 13:26:49;;;;;;;46.78;20.88;;;;;;;;;;5070412;28;20035;-57
2021/12/06 13:29:17;;;;;;;54.40;20.95;;;;;;;;;;5070657;28;20044;-57
2021/12/06 13:31:43;;;;;;;51.42;22.45;;;;;;;;;;5063314;28;20127;-58
2021/12/06 13:34:16;;;;;;;57.08;23.98;;;;;;;;;;5069313;28;20435;-57
2021/12/06 13:36:44;;;;;;;52.08;22.70;;;;;;;;;;5070947;28;20394;-57
2021/12/06 13:39:34;;;;;;;51.40;22.52;;;3.30;99.90;;;;;;5074469;28;20107;-58
2021/12/06 13:42:02;;;;;;;54.55;22.52;;;;;;;;;;5074444;28;20040;-58
2021/12/06 13:44:39;;;;;;;54.08;23.05;;;;;;;;;;5072899;28;20571;-57
2021/12/06 13:47:10;;;;;;;58.92;23.63;;;;;;;;;;5074154;28;20047;-57
2021/12/06 13:49:36;;;;;;;53.60;22.30;;;;;;;;;;5073834;28;20052;-58
2021/12/06 13:52:05;;;;;;;58.10;23.45;;;;;;;;;;5073778;28;20032;-58
2021/12/06 13:54:31;;;;;;;49.40;19.35;;;;;;;;;;5073869;28;20483;-57
2021/12/06 13:57:11;;;;;;;53.55;23.15;;;;;;;;;;5074072;28;20506;-58
2021/12/06 13:59:40;;;;;;;66.05;25.10;;;;;;;;;;5073708;28;20044;-58
2021/12/06 14:02:12;;;;;;;63.90;23.90;;;;;;;;;;5072835;28;20040;-57
2021/12/06 14:04:39;;;;;;;57.47;23.23;;;;;;;;;;5072473;28;20067;-58
2021/12/06 14:07:07;;;;;;;77.40;21.33;;;;;;;;;;5072793;28;20170;-58
2021/12/06 14:09:34;;;;;;;55.13;22.58;;;;;;;;;;5073454;28;20060;-58
2021/12/06 14:12:02;;;;;;;66.50;27.00;;;;;;;;;;5073516;28;20049;-58
2021/12/06 14:14:29;;;;;;;63.42;25.10;;;;;;;;;;5074088;28;20403;-57
2021/12/06 14:16:56;;;;;;;66.45;27.27;;;;;;;;;;5072293;28;20033;-58
2021/12/06 14:19:24;;;;;;;74.93;28.95;;;;;;;;;;5073708;28;20044;-58
2021/12/06 14:21:51;;;;;;;74.65;29.27;;;;;;;;;;5073359;28;20135;-57
2021/12/06 14:24:17;;;;;;;68.35;26.65;;;;;;;;;;5073346;28;20036;-58
2021/12/06 14:26:44;;;;;;;59.22;24.17;;;;;;;;;;5073366;28;20221;-57
2021/12/06 14:29:18;;;;;;;51.28;21.58;;;;;;;;;;5073357;28;20051;-57
2021/12/06 14:31:45;;;;;;;71.00;29.20;;;;;;;;;;5073240;28;20047;-58
2021/12/06 14:34:12;;;;;;;64.88;27.80;;;;;;;;;;5073627;28;20484;-58
2021/12/06 14:36:39;;;;;;;63.20;26.83;;;;;;;;;;5073241;28;20462;-58
2021/12/06 14:39:14;;;;;;;67.63;29.27;;;;;;;;;;5072206;28;20032;-57
2021/12/06 14:41:55;;;;;;;73.65;29.80;;;;;;;;;;5072860;28;20053;-58